Sycamore (728, 920) Station Data

Red Flag Warning: No
Fire Weather Zone: 250
SDGE Region: Beach Cities
Lat/Lon: 32.914/-117.03

Observations

Time Wind Speed/Gust Temp(F) RH Fuel Moist Fuel Temp(F) Dewpt(F) Tmax(F) Tmin(F) Accum Precip 10-min Precip SL Press(mb)
2/27 11:40pm 284 8 G 18 51° 100% - - 51° 53.9° 47.1° - - -
2/27 11:20pm 282 5 G 10 51° 100% - - 51° 53.9° 47.1° - - -
2/27 11:10pm 297 3 G 7 51° 100% - - 51° 53.9° 47.1° - - -
2/27 11:00pm 307 5 G 8 51° 100% - - 51° 53.9° 47.1° - - -
2/27 10:50pm 313 6 G 11 51° 100% - - 51° 53.9° 47.1° - - -
2/27 10:40pm 301 7 G 12 51° 100% - - 51° 53.9° 47.1° - - -
2/27 10:30pm 308 8 G 14 51° 100% - - 51° 53.9° 47.1° - - -
2/27 10:20pm 299 8 G 16 51° 100% - - 51° 53.9° 47.1° - - -
2/27 10:10pm 295 7 G 14 52° 100% - - 52° 53.9° 47.1° - - -
2/27 10:00pm 262 7 G 12 52° 100% - - 52° 53.9° 47.1° - - -
2/27 9:50pm 234 9 G 20 53° 100% - - 53° 53.9° 47.1° - - -
2/27 9:40pm 186 16 G 26 53° 100% - - 53° 53.9° 47.1° - - -
2/27 9:30pm 182 14 G 27 53° 100% - - 53° 53.9° 47.1° - - -
2/27 9:20pm 189 16 G 28 53° 100% - - 53° 53.9° 47.1° - - -
2/27 9:10pm 192 14 G 24 53° 100% - - 53° 53.9° 47.1° - - -
2/27 9:00pm 188 13 G 21 53° 100% - - 53° 53.9° 47.1° - - -
2/27 8:50pm 188 11 G 20 52° 100% - - 53° 53.9° 47.1° - - -
2/27 8:40pm 180 14 G 22 52° 100% - - 52° 53.9° 47.1° - - -
2/27 8:30pm 183 14 G 24 53° 100% - - 53° 53.9° 47.1° - - -
2/27 8:20pm 182 13 G 21 53° 100% - - 53° 53.9° 47.1° - - -
2/27 8:10pm 179 14 G 22 53° 100% - - 53° 53.9° 47.1° - - -
2/27 8:00pm 181 13 G 22 53° 100% - - 53° 53.9° 47.1° - - -
2/27 7:50pm 186 11 G 18 53° 100% - - 53° 53.9° 47.1° - - -
2/27 7:40pm 188 11 G 23 53° 100% - - 53° 53.9° 47.1° - - -
2/27 7:30pm 186 10 G 21 53° 100% - - 53° 53.9° 47.1° - - -
2/27 7:20pm 177 10 G 14 53° 100% - - 53° 53.9° 47.1° - - -
2/27 7:10pm 185 9 G 16 53° 100% - - 53° 53.9° 47.1° - - -
2/27 7:00pm 186 9 G 14 53° 100% - - 53° 53.9° 47.1° - - -
2/27 6:50pm 183 9 G 14 53° 100% - - 53° 53.9° 47.1° - - -
2/27 6:40pm 188 12 G 19 53° 100% - - 53° 53.9° 47.1° - - -
2/27 6:30pm 190 12 G 20 53° 100% - - 53° 53.9° 47.1° - - -
2/27 6:20pm 185 12 G 18 53° 100% - - 53° 53.9° 47.1° - - -
2/27 6:10pm 178 11 G 17 53° 100% - - 53° 53.9° 47.1° - - -
2/27 6:00pm 187 13 G 20 53° 100% - - 53° 53.9° 47.1° - - -
2/27 5:50pm 197 13 G 19 53° 100% - - 53° 53.9° 47.1° - - -
2/27 5:40pm 194 12 G 20 53° 100% - - 53° 53.9° 47.1° - - -
2/27 5:30pm 181 15 G 25 53° 100% - - 53° 53.9° 47.1° - - -
2/27 5:20pm 183 14 G 21 53° 100% - - 53° 53.9° 47.1° - - -
2/27 5:10pm 189 13 G 24 53° 100% - - 53° 53.9° 47.1° - - -
2/27 5:00pm 190 14 G 22 53° 100% - - 53° 53.9° 47.1° - - -
2/27 4:50pm 181 14 G 21 53° 100% - - 53° 53.9° 47.1° - - -
2/27 4:40pm 179 16 G 26 53° 100% - - 53° 53.9° 47.1° - - -
2/27 4:30pm 190 15 G 25 53° 100% - - 53° 53.9° 47.1° - - -
2/27 4:20pm 196 15 G 28 53° 100% - - 53° 53.9° 47.1° - - -
2/27 4:10pm 188 11 G 18 53° 100% - - 53° 53.9° 47.1° - - -
2/27 4:00pm 185 15 G 24 53° 100% - - 53° 53.9° 47.1° - - -
2/27 3:50pm 171 14 G 22 53° 100% - - 53° 53.9° 47.1° - - -
2/27 3:40pm 177 15 G 25 53° 100% - - 53° 53.9° 47.1° - - -
2/27 3:30pm 181 16 G 25 54° 100% - - 54° 53.9° 47.1° - - -
2/27 3:20pm 175 16 G 25 53° 100% - - 53° 53.9° 47.1° - - -
2/27 3:10pm 178 15 G 26 53° 100% - - 53° 53.9° 47.1° - - -
2/27 3:00pm 176 16 G 26 53° 100% - - 53° 53.9° 47.1° - - -
2/27 2:50pm 176 16 G 24 53° 100% - - 53° 53.9° 47.1° - - -
2/27 2:40pm 180 15 G 24 53° 100% - - 53° 53.9° 47.1° - - -
2/27 2:30pm 183 15 G 25 53° 100% - - 53° 53.9° 47.1° - - -
2/27 2:20pm 184 17 G 26 53° 100% - - 53° 53.9° 47.1° - - -
2/27 2:10pm 185 17 G 27 53° 100% - - 53° 53.9° 47.1° - - -
2/27 2:00pm 186 15 G 26 53° 100% - - 53° 53.9° 47.1° - - -
2/27 1:50pm 204 16 G 28 53° 100% - - 53° 53.9° 47.1° - - -
2/27 1:40pm 189 17 G 26 53° 100% - - 53° 53.9° 47.1° - - -
2/27 1:30pm 189 19 G 29 53° 100% - - 53° 53.9° 47.1° - - -
2/27 1:20pm 191 16 G 30 53° 100% - - 53° 53.9° 47.1° - - -
2/27 1:10pm 181 16 G 27 53° 100% - - 53° 53.9° 47.1° - - -
2/27 1:00pm 182 16 G 27 53° 100% - - 53° 53.9° 47.1° - - -
2/27 12:50pm 182 15 G 24 53° 100% - - 53° 53.9° 47.1° - - -
2/27 12:40pm 182 15 G 26 53° 100% - - 53° 53.9° 47.1° - - -
2/27 12:30pm 181 18 G 28 53° 100% - - 53° 53.9° 47.1° - - -
2/27 12:20pm 179 19 G 33 53° 100% - - 53° 53.9° 47.1° - - -
2/27 12:10pm 196 16 G 29 53° 100% - - 53° 53.9° 47.1° - - -
2/27 12:00pm 185 16 G 26 53° 100% - - 53° 53.9° 47.1° - - -
2/27 11:50am 179 16 G 26 53° 100% - - 53° 53.9° 47.1° - - -
2/27 11:40am 176 16 G 24 53° 100% - - 53° 53.9° 47.1° - - -
2/27 11:30am 176 19 G 27 53° 100% - - 53° 53.9° 47.1° - - -
2/27 11:20am 180 17 G 31 53° 100% - - 53° 53.9° 47.1° - - -
2/27 11:10am 178 15 G 29 52° 100% - - 52° 53.9° 47.1° - - -
2/27 11:00am 187 18 G 28 52° 100% - - 52° 53.9° 47.1° - - -
2/27 10:50am 183 15 G 26 53° 100% - - 53° 53.9° 47.1° - - -
2/27 10:40am 188 11 G 21 52° 100% - - 52° 53.9° 47.1° - - -
2/27 10:30am 189 15 G 27 52° 100% - - 52° 53.9° 47.1° - - -
2/27 10:20am 182 19 G 34 53° 100% - - 53° 53.9° 47.1° - - -
2/27 10:10am 189 16 G 31 53° 100% - - 53° 53.9° 47.1° - - -
2/27 10:00am 190 18 G 31 53° 100% - - 53° 53.9° 47.1° - - -
2/27 9:50am 190 16 G 26 54° 100% - - 54° 53.9° 47.1° - - -
2/27 9:40am 189 14 G 24 54° 100% - - 54° 53.9° 47.1° - - -
2/27 9:30am 189 12 G 23 54° 100% - - 54° 53.9° 47.1° - - -
2/27 9:20am 190 14 G 26 53° 100% - - 53° 53.9° 47.1° - - -
2/27 9:10am 187 14 G 24 53° 100% - - 53° 53.9° 47.1° - - -
2/27 9:00am 186 14 G 24 54° 100% - - 54° 53.9° 47.1° - - -
2/27 8:50am 188 12 G 20 53° 100% - - 53° 53.9° 47.1° - - -
2/27 8:40am 193 14 G 22 53° 100% - - 53° 53.9° 47.1° - - -
2/27 8:30am 187 17 G 28 53° 100% - - 53° 53.9° 47.1° - - -
2/27 8:20am 183 14 G 25 53° 100% - - 53° 53.9° 47.1° - - -
2/27 8:10am 179 13 G 21 53° 100% - - 54° 53.9° 47.1° - - -
2/27 8:00am 185 12 G 20 54° 100% - - 54° 53.9° 47.1° - - -
2/27 7:50am 183 12 G 19 54° 100% - - 54° 53.9° 47.1° - - -
2/27 7:40am 183 12 G 19 54° 100% - - 54° 53.9° 47.1° - - -
2/27 7:30am 188 13 G 21 54° 100% - - 54° 53.9° 47.1° - - -
2/27 7:20am 184 11 G 17 54° 100% - - 54° 53.9° 47.1° - - -
2/27 7:10am 181 12 G 20 54° 100% - - 54° 53.9° 47.1° - - -
2/27 7:00am 184 12 G 23 54° 100% - - 54° 53.8° 47.1° - - -
2/27 6:50am 180 12 G 20 54° 100% - - 54° 53.8° 47.1° - - -
2/27 6:40am 179 13 G 22 54° 100% - - 54° 53.7° 47.1° - - -
2/27 6:30am 182 11 G 19 54° 100% - - 54° 53.7° 47.1° - - -
2/27 6:20am 186 12 G 18 53° 100% - - 53° 53.7° 47.1° - - -
2/27 6:10am 181 15 G 26 53° 100% - - 53° 53.7° 47.1° - - -
2/27 6:00am 177 13 G 21 53° 100% - - 53° 53.7° 47.1° - - -
2/27 5:50am 177 14 G 22 53° 100% - - 53° 53.7° 47.1° - - -
2/27 5:40am 172 9 G 19 52° 100% - - 52° 52.9° 47.1° - - -
2/27 5:30am 163 8 G 13 51° 100% - - 51° 51.6° 47.1° - - -
2/27 5:20am 157 7 G 10 50° 100% - - 50° 50.8° 47.1° - - -
2/27 5:10am 153 7 G 9 50° 100% - - 50° 50.3° 47.1° - - -
2/27 5:00am 154 8 G 11 50° 100% - - 50° 50° 47.1° - - -
2/27 4:50am 151 9 G 12 50° 100% - - 50° 49.8° 47.1° - - -
2/27 4:40am 148 9 G 12 49° 100% - - 49° 49.7° 47.1° - - -
2/27 4:30am 146 10 G 15 50° 100% - - 50° 49.7° 47.1° - - -
2/27 4:20am 146 8 G 12 49° 100% - - 49° 49.5° 47.1° - - -
2/27 4:10am 147 8 G 12 49° 100% - - 49° 49.5° 47.1° - - -
2/27 4:00am 134 6 G 10 49° 100% - - 49° 49.5° 47.1° - - -
2/27 3:50am 131 6 G 10 49° 100% - - 49° 49.4° 47.1° - - -
2/27 3:40am 117 4 G 7 49° 100% - - 49° 49.2° 47.1° - - -
2/27 3:30am 122 4 G 8 49° 100% - - 49° 49° 47.1° - - -
2/27 3:20am 117 3 G 6 49° 100% - - 49° 48.7° 47.1° - - -
2/27 3:10am 101 4 G 6 48° 100% - - 48° 48.5° 47.1° - - -
2/27 3:00am 90 3 G 6 48° 100% - - 48° 48.5° 47.1° - - -
2/27 2:50am 90 2 G 4 48° 100% - - 48° 48.4° 47.1° - - -
2/27 2:40am 104 1 G 3 48° 100% - - 48° 48.3° 47.1° - - -
2/27 2:30am 119 2 G 6 48° 100% - - 48° 48.1° 47.1° - - -
2/27 2:20am 123 5 G 8 48° 100% - - 48° 48° 47.1° - - -
2/27 2:10am 127 6 G 9 48° 100% - - 48° 48° 47.1° - - -
2/27 2:00am 123 7 G 10 48° 100% - - 48° 47.9° 47.1° - - -
2/27 1:50am 120 7 G 10 48° 100% - - 48° 47.8° 47.1° - - -
2/27 1:40am 125 6 G 10 48° 100% - - 48° 47.8° 47.1° - - -
2/27 1:30am 126 6 G 9 48° 100% - - 48° 47.8° 47.1° - - -
2/27 1:20am 128 6 G 9 48° 100% - - 48° 47.7° 47.1° - - -
2/27 1:10am 127 5 G 10 48° 100% - - 48° 47.7° 47.1° - - -
2/27 1:00am 126 5 G 9 48° 100% - - 48° 47.7° 47.1° - - -
2/27 12:50am 123 4 G 9 47° 100% - - 47° 47.6° 47.1° - - -
2/27 12:40am 131 4 G 7 47° 100% - - 47° 47.6° 47.1° - - -
2/27 12:30am 122 4 G 6 47° 100% - - 47° 47.5° 47.1° - - -
2/27 12:20am 114 3 G 7 47° 100% - - 47° 47.5° 47.1° - - -
2/27 12:10am 104 4 G 8 47° 100% - - 47° 47.5° 47.1° - - -
2/27 12:00am 109 3 G 5 47° 100% - - 47° 55.7° 45.9° - - -
2/26 11:50pm 101 4 G 8 47° 100% - - 47° 55.7° 45.9° - - -
2/26 11:40pm 101 4 G 7 47° 100% - - 47° 55.7° 45.9° - - -
2/26 11:30pm 107 3 G 5 47° 100% - - 47° 55.7° 45.9° - - -
2/26 11:20pm 100 3 G 6 48° 100% - - 48° 55.7° 45.9° - - -
2/26 11:10pm 108 3 G 6 48° 87% - - 45° 55.7° 45.9° - - -
2/26 11:00pm 104 4 G 5 48° 84% - - 44° 55.7° 45.9° - - -
2/26 10:50pm 104 3 G 5 48° 84% - - 44° 55.7° 45.9° - - -
2/26 10:40pm 107 4 G 5 48° 83% - - 43° 55.7° 45.9° - - -
2/26 10:30pm 95 5 G 6 49° 81% - - 43° 55.7° 45.9° - - -
2/26 10:20pm 94 4 G 5 48° 83% - - 43° 55.7° 45.9° - - -
2/26 10:10pm 119 3 G 4 48° 83% - - 43° 55.7° 45.9° - - -
2/26 10:00pm 98 4 G 4 49° 79% - - 43° 55.7° 45.9° - - -
2/26 9:50pm 72 2 G 3 49° 80% - - 43° 55.7° 45.9° - - -
2/26 9:40pm 50 2 G 2 49° 80% - - 43° 55.7° 45.9° - - -
2/26 9:30pm 39 1 G 2 49° 81% - - 43° 55.7° 45.9° - - -
2/26 9:20pm 28 1 G 2 49° 80% - - 43° 55.7° 45.9° - - -
2/26 9:10pm 35 0 G 1 49° 80% - - 43° 55.7° 45.9° - - -
2/26 9:00pm 58 1 G 1 49° 80% - - 43° 55.7° 45.9° - - -
2/26 8:50pm 328 1 G 2 49° 79% - - 43° 55.7° 45.9° - - -
2/26 8:40pm 297 2 G 3 49° 80% - - 43° 55.7° 45.9° - - -
2/26 8:30pm 288 3 G 4 49° 80% - - 43° 55.7° 45.9° - - -
2/26 8:20pm 279 4 G 5 49° 79% - - 43° 55.7° 45.9° - - -
2/26 8:10pm 277 4 G 5 49° 80% - - 43° 55.7° 45.9° - - -
2/26 8:00pm 272 5 G 6 49° 84% - - 44° 55.7° 45.9° - - -
2/26 7:50pm 274 4 G 6 48° 94% - - 47° 55.7° 45.9° - - -
2/26 7:40pm 270 2 G 4 48° 100% - - 48° 55.7° 45.9° - - -
2/26 7:30pm 267 3 G 5 48° 100% - - 48° 55.7° 45.9° - - -
2/26 7:20pm 257 3 G 5 48° 100% - - 48° 55.7° 45.9° - - -
2/26 7:10pm 221 1 G 3 49° 100% - - 49° 55.7° 45.9° - - -
2/26 7:00pm 225 2 G 5 49° 100% - - 49° 55.7° 45.9° - - -
2/26 6:50pm 238 3 G 7 49° 100% - - 49° 55.7° 45.9° - - -
2/26 6:40pm 252 3 G 6 50° 100% - - 50° 55.7° 45.9° - - -
2/26 6:30pm 253 4 G 6 50° 100% - - 50° 55.7° 45.9° - - -
2/26 6:20pm 235 4 G 8 50° 92% - - 48° 55.7° 45.9° - - -
2/26 6:10pm 234 4 G 7 50° 85% - - 46° 55.7° 45.9° - - -
2/26 6:00pm 229 4 G 8 51° 87% - - 47° 55.7° 45.9° - - -
2/26 5:50pm 194 5 G 8 51° 87% - - 47° 55.7° 45.9° - - -
2/26 5:40pm 188 6 G 9 51° 84% - - 46° 55.7° 45.9° - - -
2/26 5:30pm 193 7 G 12 51° 81% - - 46° 55.7° 45.9° - - -
2/26 5:20pm 202 9 G 13 51° 81% - - 45° 55.7° 45.9° - - -
2/26 5:10pm 201 9 G 15 51° 79% - - 45° 55.7° 45.9° - - -
2/26 5:00pm 206 8 G 13 52° 78% - - 45° 55.7° 45.9° - - -